sensor_id;sensor_type;location;lat;lon;timestamp;pressure;altitude;pressure_sealevel;temperature;humidity
22257;BME280;11297;42.686;23.374;2023-02-22T00:00:21;94964.81;;;10.24;43.14
22257;BME280;11297;42.686;23.374;2023-02-22T00:02:53;94963.34;;;10.40;43.08
22257;BME280;11297;42.686;23.374;2023-02-22T00:05:25;94964.63;;;10.51;42.75
22257;BME280;11297;42.686;23.374;2023-02-22T00:07:51;94963.31;;;10.62;42.43
22257;BME280;11297;42.686;23.374;2023-02-22T00:10:16;94959.84;;;10.75;42.28
22257;BME280;11297;42.686;23.374;2023-02-22T00:12:52;94964.97;;;10.58;42.52
22257;BME280;11297;42.686;23.374;2023-02-22T00:15:21;94965.41;;;10.51;42.51
22257;BME280;11297;42.686;23.374;2023-02-22T00:17:47;94968.53;;;10.40;43.31
22257;BME280;11297;42.686;23.374;2023-02-22T00:20:14;94968.22;;;10.33;43.13
22257;BME280;11297;42.686;23.374;2023-02-22T00:22:43;94979.31;;;10.25;43.74
22257;BME280;11297;42.686;23.374;2023-02-22T00:25:17;94970.53;;;10.35;43.22
22257;BME280;11297;42.686;23.374;2023-02-22T00:27:44;94962.44;;;10.45;43.03
22257;BME280;11297;42.686;23.374;2023-02-22T00:30:17;94963.09;;;10.50;42.98
22257;BME280;11297;42.686;23.374;2023-02-22T00:32:47;94952.03;;;10.36;43.42
22257;BME280;11297;42.686;23.374;2023-02-22T00:35:15;94964.28;;;10.44;43.55
22257;BME280;11297;42.686;23.374;2023-02-22T00:37:41;94955.69;;;10.35;43.75
22257;BME280;11297;42.686;23.374;2023-02-22T00:40:13;94960.88;;;10.35;43.85
22257;BME280;11297;42.686;23.374;2023-02-22T00:42:38;94959.69;;;10.41;43.64
22257;BME280;11297;42.686;23.374;2023-02-22T00:45:04;94958.72;;;10.29;44.06
22257;BME280;11297;42.686;23.374;2023-02-22T00:47:30;94958.44;;;10.30;43.69
22257;BME280;11297;42.686;23.374;2023-02-22T00:49:56;94946.81;;;10.28;44.40
22257;BME280;11297;42.686;23.374;2023-02-22T00:52:21;94939.06;;;10.36;44.23
22257;BME280;11297;42.686;23.374;2023-02-22T00:54:46;94935.88;;;10.39;44.01
22257;BME280;11297;42.686;23.374;2023-02-22T00:57:12;94939.13;;;10.53;43.28
22257;BME280;11297;42.686;23.374;2023-02-22T00:59:37;94939.47;;;10.68;43.48
22257;BME280;11297;42.686;23.374;2023-02-22T01:02:03;94927.28;;;10.77;43.05
22257;BME280;11297;42.686;23.374;2023-02-22T01:04:28;94938.47;;;10.78;42.61
22257;BME280;11297;42.686;23.374;2023-02-22T01:06:54;94930.81;;;10.81;42.48
22257;BME280;11297;42.686;23.374;2023-02-22T01:09:20;94928.69;;;10.92;42.88
22257;BME280;11297;42.686;23.374;2023-02-22T01:11:46;94933.47;;;11.06;42.48
22257;BME280;11297;42.686;23.374;2023-02-22T01:14:12;94928.44;;;11.18;42.25
22257;BME280;11297;42.686;23.374;2023-02-22T01:16:37;94924.78;;;11.28;41.83
22257;BME280;11297;42.686;23.374;2023-02-22T01:19:03;94925.25;;;11.38;41.63
22257;BME280;11297;42.686;23.374;2023-02-22T01:21:30;94927.72;;;11.43;41.53
22257;BME280;11297;42.686;23.374;2023-02-22T01:23:56;94922.19;;;11.44;41.44
22257;BME280;11297;42.686;23.374;2023-02-22T01:26:21;94922.34;;;11.40;41.10
22257;BME280;11297;42.686;23.374;2023-02-22T01:28:46;94913.94;;;11.26;41.45
22257;BME280;11297;42.686;23.374;2023-02-22T01:31:12;94917.91;;;11.15;41.41
22257;BME280;11297;42.686;23.374;2023-02-22T01:33:37;94918.63;;;11.07;41.13
22257;BME280;11297;42.686;23.374;2023-02-22T01:36:04;94915.97;;;10.82;41.59
22257;BME280;11297;42.686;23.374;2023-02-22T01:38:35;94924.22;;;10.75;41.71
22257;BME280;11297;42.686;23.374;2023-02-22T01:41:01;94923.16;;;10.76;41.82
22257;BME280;11297;42.686;23.374;2023-02-22T01:43:29;94920.25;;;10.69;42.28
22257;BME280;11297;42.686;23.374;2023-02-22T01:46:21;94919.34;;;10.74;41.57
22257;BME280;11297;42.686;23.374;2023-02-22T01:48:54;94911.53;;;10.74;42.08
22257;BME280;11297;42.686;23.374;2023-02-22T01:51:27;94912.44;;;10.69;42.45
22257;BME280;11297;42.686;23.374;2023-02-22T01:54:08;94919.00;;;10.58;42.42
22257;BME280;11297;42.686;23.374;2023-02-22T01:56:37;94928.84;;;10.40;42.84
22257;BME280;11297;42.686;23.374;2023-02-22T01:59:07;94924.34;;;10.23;43.84
22257;BME280;11297;42.686;23.374;2023-02-22T02:01:37;94922.19;;;10.17;44.37
22257;BME280;11297;42.686;23.374;2023-02-22T02:04:11;94933.75;;;10.11;44.31
22257;BME280;11297;42.686;23.374;2023-02-22T02:06:37;94926.00;;;10.19;44.25
22257;BME280;11297;42.686;23.374;2023-02-22T02:09:15;94925.88;;;10.24;43.61
22257;BME280;11297;42.686;23.374;2023-02-22T02:11:43;94928.50;;;10.33;43.40
22257;BME280;11297;42.686;23.374;2023-02-22T02:14:10;94932.47;;;10.30;43.68
22257;BME280;11297;42.686;23.374;2023-02-22T02:16:41;94934.63;;;10.37;43.50
22257;BME280;11297;42.686;23.374;2023-02-22T02:27:34;94929.56;;;10.32;43.57
22257;BME280;11297;42.686;23.374;2023-02-22T02:33:32;94941.97;;;10.35;43.71
22257;BME280;11297;42.686;23.374;2023-02-22T02:36:15;94938.63;;;10.43;43.37
22257;BME280;11297;42.686;23.374;2023-02-22T02:38:57;94945.38;;;10.52;43.73
22257;BME280;11297;42.686;23.374;2023-02-22T02:41:30;94939.59;;;10.55;43.65
22257;BME280;11297;42.686;23.374;2023-02-22T02:46:35;94945.91;;;10.32;44.09
22257;BME280;11297;42.686;23.374;2023-02-22T02:49:15;94950.03;;;10.33;43.89
22257;BME280;11297;42.686;23.374;2023-02-22T02:51:47;94944.13;;;10.41;43.67
22257;BME280;11297;42.686;23.374;2023-02-22T02:54:14;94944.56;;;10.43;43.65
22257;BME280;11297;42.686;23.374;2023-02-22T02:56:41;94941.38;;;10.46;43.68
22257;BME280;11297;42.686;23.374;2023-02-22T02:59:30;94953.34;;;10.55;43.89
22257;BME280;11297;42.686;23.374;2023-02-22T03:07:50;94952.06;;;10.75;43.15
22257;BME280;11297;42.686;23.374;2023-02-22T03:10:55;94952.94;;;10.70;43.66
22257;BME280;11297;42.686;23.374;2023-02-22T03:16:47;94948.31;;;10.59;44.32
22257;BME280;11297;42.686;23.374;2023-02-22T03:19:26;94948.16;;;10.55;43.85
22257;BME280;11297;42.686;23.374;2023-02-22T03:22:21;94948.91;;;10.56;44.22
22257;BME280;11297;42.686;23.374;2023-02-22T03:24:48;94937.56;;;10.44;44.58
22257;BME280;11297;42.686;23.374;2023-02-22T03:30:36;94944.56;;;10.43;44.32
22257;BME280;11297;42.686;23.374;2023-02-22T03:33:10;94946.56;;;10.38;44.48
22257;BME280;11297;42.686;23.374;2023-02-22T03:35:45;94950.84;;;10.42;44.81
22257;BME280;11297;42.686;23.374;2023-02-22T03:38:15;94952.06;;;10.45;44.66
22257;BME280;11297;42.686;23.374;2023-02-22T03:40:45;94951.66;;;10.51;44.44
22257;BME280;11297;42.686;23.374;2023-02-22T03:43:17;94953.81;;;10.57;44.64
22257;BME280;11297;42.686;23.374;2023-02-22T03:45:44;94953.50;;;10.59;44.37
22257;BME280;11297;42.686;23.374;2023-02-22T03:48:25;94940.19;;;10.52;44.16
22257;BME280;11297;42.686;23.374;2023-02-22T03:50:55;94952.47;;;10.68;44.38
22257;BME280;11297;42.686;23.374;2023-02-22T03:53:23;94958.59;;;10.72;43.74
22257;BME280;11297;42.686;23.374;2023-02-22T03:55:50;94955.41;;;10.75;44.01
22257;BME280;11297;42.686;23.374;2023-02-22T03:58:20;94947.47;;;10.72;43.40
22257;BME280;11297;42.686;23.374;2023-02-22T04:00:47;94959.06;;;10.74;43.32
22257;BME280;11297;42.686;23.374;2023-02-22T04:03:18;94954.94;;;10.73;43.73
22257;BME280;11297;42.686;23.374;2023-02-22T04:05:44;94946.97;;;10.70;43.40
22257;BME280;11297;42.686;23.374;2023-02-22T04:08:09;94946.97;;;10.61;43.59
22257;BME280;11297;42.686;23.374;2023-02-22T04:10:34;94953.16;;;10.52;43.41
22257;BME280;11297;42.686;23.374;2023-02-22T04:13:02;94952.84;;;10.45;43.59
22257;BME280;11297;42.686;23.374;2023-02-22T04:15:27;94948.97;;;10.34;43.37
22257;BME280;11297;42.686;23.374;2023-02-22T04:17:53;94947.69;;;10.23;43.58
22257;BME280;11297;42.686;23.374;2023-02-22T04:20:19;94946.38;;;10.04;43.88
22257;BME280;11297;42.686;23.374;2023-02-22T04:22:45;94954.97;;;9.91;44.18
22257;BME280;11297;42.686;23.374;2023-02-22T04:25:11;94959.44;;;9.77;44.36
22257;BME280;11297;42.686;23.374;2023-02-22T04:27:36;94967.28;;;9.64;44.81
22257;BME280;11297;42.686;23.374;2023-02-22T04:30:02;94968.56;;;9.53;45.64
22257;BME280;11297;42.686;23.374;2023-02-22T04:32:28;94966.69;;;9.45;45.08
22257;BME280;11297;42.686;23.374;2023-02-22T04:34:53;94969.44;;;9.49;45.28
22257;BME280;11297;42.686;23.374;2023-02-22T04:37:19;94975.88;;;9.51;45.33
22257;BME280;11297;42.686;23.374;2023-02-22T04:39:44;94975.88;;;9.51;44.81
22257;BME280;11297;42.686;23.374;2023-02-22T04:42:09;94962.84;;;9.43;45.16
22257;BME280;11297;42.686;23.374;2023-02-22T04:44:35;94966.00;;;9.40;44.85
22257;BME280;11297;42.686;23.374;2023-02-22T04:47:00;94962.00;;;9.34;45.03
22257;BME280;11297;42.686;23.374;2023-02-22T04:49:25;94972.66;;;9.32;45.06
22257;BME280;11297;42.686;23.374;2023-02-22T04:51:51;94960.28;;;9.29;45.05
22257;BME280;11297;42.686;23.374;2023-02-22T04:54:16;94961.91;;;9.25;45.91
22257;BME280;11297;42.686;23.374;2023-02-22T04:56:43;94954.53;;;9.19;45.44
22257;BME280;11297;42.686;23.374;2023-02-22T04:59:08;94958.84;;;9.23;45.31
22257;BME280;11297;42.686;23.374;2023-02-22T05:01:35;94969.03;;;9.20;45.61
22257;BME280;11297;42.686;23.374;2023-02-22T05:04:05;94960.47;;;9.19;46.13
22257;BME280;11297;42.686;23.374;2023-02-22T05:06:31;94968.25;;;9.19;45.36
22257;BME280;11297;42.686;23.374;2023-02-22T05:08:56;94967.31;;;9.15;46.00
22257;BME280;11297;42.686;23.374;2023-02-22T05:11:22;94972.97;;;9.17;46.26
22257;BME280;11297;42.686;23.374;2023-02-22T05:13:47;94970.97;;;9.14;46.13
22257;BME280;11297;42.686;23.374;2023-02-22T05:16:13;94976.03;;;9.19;46.33
22257;BME280;11297;42.686;23.374;2023-02-22T05:18:39;94977.56;;;9.20;45.74
22257;BME280;11297;42.686;23.374;2023-02-22T05:21:05;94977.47;;;9.25;45.73
22257;BME280;11297;42.686;23.374;2023-02-22T05:23:31;94983.91;;;9.28;45.39
22257;BME280;11297;42.686;23.374;2023-02-22T05:25:57;94981.31;;;9.28;45.37
22257;BME280;11297;42.686;23.374;2023-02-22T05:28:22;94976.72;;;9.25;45.94
22257;BME280;11297;42.686;23.374;2023-02-22T05:30:48;94976.25;;;9.23;45.97
22257;BME280;11297;42.686;23.374;2023-02-22T05:33:13;94985.06;;;9.22;46.15
22257;BME280;11297;42.686;23.374;2023-02-22T05:35:39;94992.25;;;9.25;46.41
22257;BME280;11297;42.686;23.374;2023-02-22T05:38:04;94991.84;;;9.31;45.90
22257;BME280;11297;42.686;23.374;2023-02-22T05:40:30;94995.09;;;9.37;46.94
22257;BME280;11297;42.686;23.374;2023-02-22T05:42:56;95010.75;;;9.45;46.43
22257;BME280;11297;42.686;23.374;2023-02-22T05:45:24;95016.78;;;9.54;46.48
22257;BME280;11297;42.686;23.374;2023-02-22T05:47:50;95018.47;;;9.72;46.15
22257;BME280;11297;42.686;23.374;2023-02-22T05:50:16;95023.94;;;9.92;45.85
22257;BME280;11297;42.686;23.374;2023-02-22T05:52:43;95012.72;;;9.97;45.05
22257;BME280;11297;42.686;23.374;2023-02-22T05:55:10;95010.88;;;10.19;45.14
22257;BME280;11297;42.686;23.374;2023-02-22T05:57:35;95013.97;;;10.51;43.94
22257;BME280;11297;42.686;23.374;2023-02-22T06:00:02;95014.13;;;10.85;43.05
22257;BME280;11297;42.686;23.374;2023-02-22T06:02:28;94997.84;;;11.09;43.71
22257;BME280;11297;42.686;23.374;2023-02-22T06:04:53;95013.25;;;11.44;42.90
22257;BME280;11297;42.686;23.374;2023-02-22T06:07:19;95007.56;;;11.43;42.14
22257;BME280;11297;42.686;23.374;2023-02-22T06:09:44;95010.63;;;11.44;41.88
22257;BME280;11297;42.686;23.374;2023-02-22T06:12:09;95005.72;;;11.35;42.43
22257;BME280;11297;42.686;23.374;2023-02-22T06:14:35;95016.00;;;11.48;42.18
22257;BME280;11297;42.686;23.374;2023-02-22T06:17:01;95002.72;;;11.66;41.86
22257;BME280;11297;42.686;23.374;2023-02-22T06:19:26;94992.00;;;11.59;42.29
22257;BME280;11297;42.686;23.374;2023-02-22T06:21:54;95007.16;;;11.83;41.43
22257;BME280;11297;42.686;23.374;2023-02-22T06:24:20;95004.72;;;11.94;41.47
22257;BME280;11297;42.686;23.374;2023-02-22T06:26:46;95001.34;;;11.94;41.18
22257;BME280;11297;42.686;23.374;2023-02-22T06:29:18;95007.59;;;12.27;40.68
22257;BME280;11297;42.686;23.374;2023-02-22T06:31:43;95005.84;;;12.56;40.11
22257;BME280;11297;42.686;23.374;2023-02-22T06:34:09;95013.13;;;12.79;39.65
22257;BME280;11297;42.686;23.374;2023-02-22T06:36:35;95003.53;;;13.08;39.05
22257;BME280;11297;42.686;23.374;2023-02-22T06:39:01;95013.53;;;13.35;39.52
22257;BME280;11297;42.686;23.374;2023-02-22T06:41:26;95020.81;;;13.90;37.91
22257;BME280;11297;42.686;23.374;2023-02-22T06:43:51;95020.25;;;14.26;37.27
22257;BME280;11297;42.686;23.374;2023-02-22T06:46:17;95017.06;;;14.52;37.03
22257;BME280;11297;42.686;23.374;2023-02-22T06:48:43;95006.84;;;14.47;37.23
22257;BME280;11297;42.686;23.374;2023-02-22T06:51:09;95018.06;;;14.60;36.81
22257;BME280;11297;42.686;23.374;2023-02-22T06:53:35;95010.47;;;14.67;36.54
22257;BME280;11297;42.686;23.374;2023-02-22T06:56:00;95012.66;;;14.77;36.50
22257;BME280;11297;42.686;23.374;2023-02-22T06:58:26;95014.22;;;14.89;36.15
22257;BME280;11297;42.686;23.374;2023-02-22T07:00:52;95005.72;;;15.04;35.95
22257;BME280;11297;42.686;23.374;2023-02-22T07:03:18;95009.13;;;15.29;35.69
22257;BME280;11297;42.686;23.374;2023-02-22T07:05:43;95003.13;;;15.40;35.69
22257;BME280;11297;42.686;23.374;2023-02-22T07:08:09;95009.88;;;15.53;35.45
22257;BME280;11297;42.686;23.374;2023-02-22T07:10:36;95004.50;;;15.73;34.93
22257;BME280;11297;42.686;23.374;2023-02-22T07:13:03;95003.19;;;16.06;34.47
22257;BME280;11297;42.686;23.374;2023-02-22T07:15:30;95015.53;;;16.45;33.54
22257;BME280;11297;42.686;23.374;2023-02-22T07:17:57;95008.19;;;16.50;33.86
22257;BME280;11297;42.686;23.374;2023-02-22T07:20:23;95024.00;;;16.81;34.51
22257;BME280;11297;42.686;23.374;2023-02-22T07:22:49;95007.56;;;16.99;33.24
22257;BME280;11297;42.686;23.374;2023-02-22T07:25:14;95017.00;;;16.58;33.46
22257;BME280;11297;42.686;23.374;2023-02-22T07:27:41;95010.00;;;16.62;33.62
22257;BME280;11297;42.686;23.374;2023-02-22T07:30:21;95012.16;;;16.87;33.21
22257;BME280;11297;42.686;23.374;2023-02-22T07:32:50;95013.34;;;17.05;33.16
22257;BME280;11297;42.686;23.374;2023-02-22T07:35:18;95001.84;;;17.24;33.40
22257;BME280;11297;42.686;23.374;2023-02-22T07:37:44;94996.75;;;17.31;32.16
22257;BME280;11297;42.686;23.374;2023-02-22T07:40:10;94997.41;;;17.44;32.17
22257;BME280;11297;42.686;23.374;2023-02-22T07:43:02;94994.59;;;17.86;31.90
22257;BME280;11297;42.686;23.374;2023-02-22T07:45:30;94994.09;;;18.34;31.42
22257;BME280;11297;42.686;23.374;2023-02-22T07:47:56;95005.97;;;19.07;30.32
22257;BME280;11297;42.686;23.374;2023-02-22T07:50:24;95002.25;;;19.33;29.82
22257;BME280;11297;42.686;23.374;2023-02-22T07:52:52;94991.75;;;19.37;29.71
22257;BME280;11297;42.686;23.374;2023-02-22T07:55:21;94987.50;;;19.55;29.57
22257;BME280;11297;42.686;23.374;2023-02-22T07:57:48;94998.16;;;19.87;29.30
22257;BME280;11297;42.686;23.374;2023-02-22T08:00:19;94989.91;;;20.18;28.79
22257;BME280;11297;42.686;23.374;2023-02-22T08:02:45;94991.13;;;19.98;28.88
22257;BME280;11297;42.686;23.374;2023-02-22T08:05:10;94989.47;;;19.61;29.62
22257;BME280;11297;42.686;23.374;2023-02-22T08:07:37;94986.66;;;20.02;28.92
22257;BME280;11297;42.686;23.374;2023-02-22T08:10:03;94991.00;;;20.17;28.55
22257;BME280;11297;42.686;23.374;2023-02-22T08:12:31;94981.19;;;20.17;30.01
22257;BME280;11297;42.686;23.374;2023-02-22T08:14:57;94984.91;;;20.13;37.09
22257;BME280;11297;42.686;23.374;2023-02-22T08:17:22;94978.50;;;20.11;33.82
22257;BME280;11297;42.686;23.374;2023-02-22T08:19:48;94986.81;;;20.78;31.39
22257;BME280;11297;42.686;23.374;2023-02-22T08:22:13;94976.13;;;20.35;29.77
22257;BME280;11297;42.686;23.374;2023-02-22T08:24:38;94983.53;;;20.91;31.03
22257;BME280;11297;42.686;23.374;2023-02-22T08:27:05;94978.63;;;20.93;29.02
22257;BME280;11297;42.686;23.374;2023-02-22T08:29:30;94973.81;;;21.02;30.21
22257;BME280;11297;42.686;23.374;2023-02-22T08:31:58;94976.53;;;21.12;29.63
22257;BME280;11297;42.686;23.374;2023-02-22T08:34:24;94978.38;;;21.52;30.08
22257;BME280;11297;42.686;23.374;2023-02-22T08:36:49;94959.84;;;21.48;28.67
22257;BME280;11297;42.686;23.374;2023-02-22T08:39:15;94966.94;;;21.41;28.88
22257;BME280;11297;42.686;23.374;2023-02-22T08:41:40;94962.31;;;21.31;28.96
22257;BME280;11297;42.686;23.374;2023-02-22T08:44:06;94965.69;;;20.81;28.36
22257;BME280;11297;42.686;23.374;2023-02-22T08:46:31;94954.75;;;21.26;29.59
22257;BME280;11297;42.686;23.374;2023-02-22T08:48:56;94957.91;;;21.45;29.24
22257;BME280;11297;42.686;23.374;2023-02-22T08:51:22;94960.81;;;21.83;30.63
22257;BME280;11297;42.686;23.374;2023-02-22T08:53:47;94969.03;;;22.46;32.22
22257;BME280;11297;42.686;23.374;2023-02-22T08:56:13;94963.38;;;22.47;27.24
22257;BME280;11297;42.686;23.374;2023-02-22T08:58:38;94958.91;;;22.75;29.57
22257;BME280;11297;42.686;23.374;2023-02-22T09:01:03;94954.41;;;23.07;27.24
22257;BME280;11297;42.686;23.374;2023-02-22T09:03:29;94957.41;;;23.30;29.31
22257;BME280;11297;42.686;23.374;2023-02-22T09:05:55;94953.22;;;23.56;27.38
22257;BME280;11297;42.686;23.374;2023-02-22T09:08:20;94947.91;;;23.63;28.02
22257;BME280;11297;42.686;23.374;2023-02-22T09:10:46;94949.31;;;24.16;26.81
22257;BME280;11297;42.686;23.374;2023-02-22T09:13:12;94942.50;;;24.12;26.61
22257;BME280;11297;42.686;23.374;2023-02-22T09:15:38;94947.06;;;24.08;26.63
22257;BME280;11297;42.686;23.374;2023-02-22T09:18:05;94941.72;;;24.11;27.12
22257;BME280;11297;42.686;23.374;2023-02-22T09:20:33;94946.91;;;24.50;27.66
22257;BME280;11297;42.686;23.374;2023-02-22T09:23:03;94943.16;;;24.40;27.94
22257;BME280;11297;42.686;23.374;2023-02-22T09:25:29;94941.25;;;24.41;37.41
22257;BME280;11297;42.686;23.374;2023-02-22T09:27:55;94945.44;;;24.38;26.66
22257;BME280;11297;42.686;23.374;2023-02-22T09:30:30;94938.63;;;24.34;28.05
22257;BME280;11297;42.686;23.374;2023-02-22T09:33:08;94932.72;;;23.88;26.34
22257;BME280;11297;42.686;23.374;2023-02-22T09:35:34;94931.88;;;24.08;27.36
22257;BME280;11297;42.686;23.374;2023-02-22T09:38:02;94926.94;;;24.14;27.11
22257;BME280;11297;42.686;23.374;2023-02-22T09:40:32;94923.56;;;24.00;28.64
22257;BME280;11297;42.686;23.374;2023-02-22T09:45:39;94930.09;;;23.74;26.27
22257;BME280;11297;42.686;23.374;2023-02-22T09:48:10;94933.50;;;23.71;29.12
22257;BME280;11297;42.686;23.374;2023-02-22T09:50:40;94929.72;;;23.62;28.32
22257;BME280;11297;42.686;23.374;2023-02-22T09:55:45;94917.59;;;23.78;31.75
22257;BME280;11297;42.686;23.374;2023-02-22T09:58:43;94920.53;;;23.98;28.78
22257;BME280;11297;42.686;23.374;2023-02-22T10:01:31;94909.63;;;23.75;27.25
22257;BME280;11297;42.686;23.374;2023-02-22T10:06:25;94904.38;;;23.44;27.41
22257;BME280;11297;42.686;23.374;2023-02-22T10:08:52;94899.81;;;23.44;28.80
22257;BME280;11297;42.686;23.374;2023-02-22T10:14:43;94885.38;;;23.69;26.64
22257;BME280;11297;42.686;23.374;2023-02-22T10:20:38;94885.03;;;23.47;26.53
22257;BME280;11297;42.686;23.374;2023-02-22T10:23:18;94877.13;;;23.36;25.37
22257;BME280;11297;42.686;23.374;2023-02-22T10:25:57;94877.13;;;23.22;26.95
22257;BME280;11297;42.686;23.374;2023-02-22T10:28:37;94876.69;;;23.69;26.82
22257;BME280;11297;42.686;23.374;2023-02-22T10:31:07;94863.06;;;23.50;25.51
22257;BME280;11297;42.686;23.374;2023-02-22T10:33:40;94855.81;;;23.60;26.31
22257;BME280;11297;42.686;23.374;2023-02-22T10:36:17;94857.34;;;23.58;25.85
22257;BME280;11297;42.686;23.374;2023-02-22T10:38:58;94855.03;;;23.77;30.51
22257;BME280;11297;42.686;23.374;2023-02-22T10:41:30;94848.94;;;23.84;25.89
22257;BME280;11297;42.686;23.374;2023-02-22T10:43:57;94835.28;;;23.85;27.57
22257;BME280;11297;42.686;23.374;2023-02-22T10:46:24;94846.53;;;24.13;30.71
22257;BME280;11297;42.686;23.374;2023-02-22T10:48:54;94839.03;;;24.59;27.10
22257;BME280;11297;42.686;23.374;2023-02-22T10:51:20;94836.09;;;24.47;27.38
22257;BME280;11297;42.686;23.374;2023-02-22T10:53:57;94828.59;;;24.31;26.06
22257;BME280;11297;42.686;23.374;2023-02-22T10:56:24;94818.59;;;23.85;28.12
22257;BME280;11297;42.686;23.374;2023-02-22T10:59:02;94819.72;;;23.87;32.45
22257;BME280;11297;42.686;23.374;2023-02-22T11:06:22;94811.31;;;23.99;32.61
22257;BME280;11297;42.686;23.374;2023-02-22T11:08:48;94816.25;;;24.01;33.26
22257;BME280;11297;42.686;23.374;2023-02-22T11:11:24;94809.91;;;23.81;27.17
22257;BME280;11297;42.686;23.374;2023-02-22T11:13:55;94802.94;;;24.07;28.31
22257;BME280;11297;42.686;23.374;2023-02-22T11:16:27;94796.78;;;23.39;28.26
22257;BME280;11297;42.686;23.374;2023-02-22T11:21:32;94800.56;;;24.20;40.93
22257;BME280;11297;42.686;23.374;2023-02-22T11:24:09;94795.03;;;24.54;37.35
22257;BME280;11297;42.686;23.374;2023-02-22T11:26:37;94783.03;;;24.29;30.78
22257;BME280;11297;42.686;23.374;2023-02-22T11:29:11;94787.56;;;24.32;26.65
22257;BME280;11297;42.686;23.374;2023-02-22T11:31:41;94784.66;;;24.16;26.87
22257;BME280;11297;42.686;23.374;2023-02-22T11:36:51;94770.53;;;24.30;32.72
22257;BME280;11297;42.686;23.374;2023-02-22T11:39:28;94777.03;;;24.22;29.01
22257;BME280;11297;42.686;23.374;2023-02-22T11:41:56;94778.19;;;24.21;31.85
22257;BME280;11297;42.686;23.374;2023-02-22T11:46:50;94760.28;;;23.71;25.71
22257;BME280;11297;42.686;23.374;2023-02-22T11:49:22;94766.41;;;23.51;26.01
22257;BME280;11297;42.686;23.374;2023-02-22T11:54:56;94751.81;;;23.01;26.19
22257;BME280;11297;42.686;23.374;2023-02-22T12:21:19;94727.38;;;21.09;27.97
22257;BME280;11297;42.686;23.374;2023-02-22T12:23:50;94728.06;;;20.95;28.96
22257;BME280;11297;42.686;23.374;2023-02-22T12:28:55;94725.75;;;20.83;28.02
22257;BME280;11297;42.686;23.374;2023-02-22T12:31:51;94734.59;;;21.22;61.14
22257;BME280;11297;42.686;23.374;2023-02-22T12:34:30;94739.34;;;21.80;57.00
22257;BME280;11297;42.686;23.374;2023-02-22T12:37:08;94721.94;;;21.79;43.35
22257;BME280;11297;42.686;23.374;2023-02-22T12:39:55;94715.56;;;21.91;41.78
22257;BME280;11297;42.686;23.374;2023-02-22T12:42:47;94710.25;;;21.91;44.07
22257;BME280;11297;42.686;23.374;2023-02-22T12:45:34;94707.22;;;21.82;34.73
22257;BME280;11297;42.686;23.374;2023-02-22T12:50:42;94714.41;;;21.99;39.76
22257;BME280;11297;42.686;23.374;2023-02-22T12:53:17;94706.47;;;22.02;39.42
22257;BME280;11297;42.686;23.374;2023-02-22T12:55:57;94697.75;;;21.84;30.72
22257;BME280;11297;42.686;23.374;2023-02-22T12:58:45;94702.31;;;21.80;41.05
22257;BME280;11297;42.686;23.374;2023-02-22T13:01:19;94704.47;;;21.40;28.74
22257;BME280;11297;42.686;23.374;2023-02-22T13:03:46;94710.13;;;21.39;29.92
22257;BME280;11297;42.686;23.374;2023-02-22T13:09:03;94703.13;;;20.89;32.31
22257;BME280;11297;42.686;23.374;2023-02-22T13:17:14;94697.97;;;21.20;40.29
22257;BME280;11297;42.686;23.374;2023-02-22T13:19:54;94699.88;;;21.16;34.14
22257;BME280;11297;42.686;23.374;2023-02-22T13:22:33;94697.97;;;21.20;36.79
22257;BME280;11297;42.686;23.374;2023-02-22T13:25:12;94689.25;;;21.10;30.50
22257;BME280;11297;42.686;23.374;2023-02-22T13:30:18;94692.53;;;20.79;31.50
22257;BME280;11297;42.686;23.374;2023-02-22T13:38:30;94695.00;;;20.58;30.94
22257;BME280;11297;42.686;23.374;2023-02-22T13:43:48;94681.00;;;20.44;31.15
22257;BME280;11297;42.686;23.374;2023-02-22T13:48:55;94686.66;;;20.42;32.39
22257;BME280;11297;42.686;23.374;2023-02-22T13:51:46;94688.44;;;20.31;30.00
22257;BME280;11297;42.686;23.374;2023-02-22T13:54:59;94687.84;;;20.55;35.46
22257;BME280;11297;42.686;23.374;2023-02-22T13:59:44;94689.13;;;20.78;32.28
22257;BME280;11297;42.686;23.374;2023-02-22T14:02:55;94674.88;;;20.97;45.45
22257;BME280;11297;42.686;23.374;2023-02-22T14:13:31;94679.22;;;20.62;30.29
22257;BME280;11297;42.686;23.374;2023-02-22T14:16:21;94686.78;;;20.66;30.36
22257;BME280;11297;42.686;23.374;2023-02-22T14:18:49;94693.16;;;20.62;31.29
22257;BME280;11297;42.686;23.374;2023-02-22T14:21:21;94687.06;;;20.51;31.90
22257;BME280;11297;42.686;23.374;2023-02-22T14:23:51;94686.28;;;20.47;30.66
22257;BME280;11297;42.686;23.374;2023-02-22T14:26:34;94689.66;;;20.41;32.21
22257;BME280;11297;42.686;23.374;2023-02-22T14:31:55;94696.25;;;20.71;37.36
22257;BME280;11297;42.686;23.374;2023-02-22T14:34:42;94678.97;;;20.84;30.79
22257;BME280;11297;42.686;23.374;2023-02-22T14:37:15;94677.69;;;20.64;30.40
22257;BME280;11297;42.686;23.374;2023-02-22T14:47:29;94673.84;;;20.48;34.54
22257;BME280;11297;42.686;23.374;2023-02-22T14:50:04;94678.44;;;20.58;34.17
22257;BME280;11297;42.686;23.374;2023-02-22T14:52:34;94676.91;;;20.57;32.18
22257;BME280;11297;42.686;23.374;2023-02-22T14:57:36;94661.59;;;20.15;30.77
22257;BME280;11297;42.686;23.374;2023-02-22T15:00:22;94681.25;;;20.25;29.84
22257;BME280;11297;42.686;23.374;2023-02-22T15:02:56;94677.44;;;20.19;31.31
22257;BME280;11297;42.686;23.374;2023-02-22T15:05:24;94676.66;;;20.15;30.69
22257;BME280;11297;42.686;23.374;2023-02-22T15:07:57;94682.91;;;20.50;46.78
22257;BME280;11297;42.686;23.374;2023-02-22T15:10:30;94685.50;;;20.43;31.61
22257;BME280;11297;42.686;23.374;2023-02-22T15:12:58;94669.28;;;20.38;29.78
22257;BME280;11297;42.686;23.374;2023-02-22T15:15:34;94679.84;;;20.45;31.06